createdAt,value
2023-01-31T00:02:53.838Z,4.2
2023-01-31T00:05:53.821Z,4.2
2023-01-31T00:08:53.815Z,4.2
2023-01-31T00:11:53.815Z,4.2
2023-01-31T00:14:53.818Z,4.2
2023-01-31T00:17:53.842Z,4.2
2023-01-31T00:20:53.825Z,4.2
2023-01-31T00:23:53.833Z,4.2
2023-01-31T00:26:53.889Z,4.1
2023-01-31T00:29:53.821Z,4.1
2023-01-31T00:32:53.826Z,4.1
2023-01-31T00:35:53.818Z,4.1
2023-01-31T00:38:53.826Z,4.1
2023-01-31T00:41:53.826Z,4.1
2023-01-31T00:44:53.829Z,4.1
2023-01-31T00:47:53.830Z,4.1
2023-01-31T00:50:53.834Z,4
2023-01-31T00:56:53.824Z,4
2023-01-31T00:59:53.826Z,4
2023-01-31T01:02:53.829Z,4
2023-01-31T01:05:53.830Z,3.9
2023-01-31T01:08:53.831Z,3.9
2023-01-31T01:11:53.824Z,3.9
2023-01-31T01:14:53.834Z,3.9
2023-01-31T01:17:53.829Z,3.8
2023-01-31T01:20:53.829Z,3.8
2023-01-31T01:26:53.889Z,3.8
2023-01-31T01:29:53.843Z,3.7
2023-01-31T01:32:53.842Z,3.7
2023-01-31T01:35:53.841Z,3.7
2023-01-31T01:38:53.841Z,3.7
2023-01-31T01:41:53.839Z,3.7
2023-01-31T01:44:53.840Z,3.6
2023-01-31T01:47:53.840Z,3.6
2023-01-31T01:50:53.835Z,3.6
2023-01-31T01:53:53.846Z,3.6
2023-01-31T01:56:53.832Z,3.6
2023-01-31T01:59:53.832Z,3.6
2023-01-31T02:02:53.840Z,3.5
2023-01-31T02:05:53.833Z,3.5
2023-01-31T02:08:53.830Z,3.5
2023-01-31T02:14:53.833Z,3.5
2023-01-31T02:17:53.840Z,3.5
2023-01-31T02:20:53.837Z,3.5
2023-01-31T02:23:53.839Z,3.5
2023-01-31T02:26:53.839Z,3.5
2023-01-31T02:29:53.839Z,3.5
2023-01-31T02:32:53.839Z,3.5
2023-01-31T02:35:53.834Z,3.5
2023-01-31T02:38:53.835Z,3.5
2023-01-31T02:44:53.838Z,3.6
2023-01-31T02:47:53.851Z,3.6
2023-01-31T02:50:53.841Z,3.5
2023-01-31T02:53:53.842Z,3.5
2023-01-31T02:56:53.851Z,3.5
2023-01-31T02:59:53.852Z,3.5
2023-01-31T03:02:53.835Z,3.5
2023-01-31T03:05:53.841Z,3.5
2023-01-31T03:08:53.834Z,3.5
2023-01-31T03:11:53.847Z,3.4
2023-01-31T03:14:53.842Z,3.4
2023-01-31T03:17:53.844Z,3.4
2023-01-31T03:20:53.835Z,3.4
2023-01-31T03:23:53.842Z,3.4
2023-01-31T03:26:53.916Z,3.4
2023-01-31T03:29:53.845Z,3.4
2023-01-31T03:32:53.847Z,3.4
2023-01-31T03:35:53.844Z,3.4
2023-01-31T03:38:53.838Z,3.4
2023-01-31T03:41:53.855Z,3.4
2023-01-31T03:44:53.835Z,3.4
2023-01-31T03:47:53.845Z,3.4
2023-01-31T03:50:53.849Z,3.4
2023-01-31T03:53:53.841Z,3.4
2023-01-31T03:56:53.847Z,3.4
2023-01-31T03:59:53.842Z,3.4
2023-01-31T04:02:53.867Z,3.3
2023-01-31T04:05:53.845Z,3.3
2023-01-31T04:08:53.841Z,3.3
2023-01-31T04:11:53.839Z,3.3
2023-01-31T04:14:53.850Z,3.3
2023-01-31T04:17:53.845Z,3.3
2023-01-31T04:20:53.845Z,3.3
2023-01-31T04:23:53.846Z,3.3
2023-01-31T04:26:53.861Z,3.2
2023-01-31T04:29:53.846Z,3.2
2023-01-31T04:32:53.847Z,3.2
2023-01-31T04:35:53.845Z,3.3
2023-01-31T04:38:53.852Z,3.3
2023-01-31T04:41:53.872Z,3.3
2023-01-31T04:44:53.849Z,3.2
2023-01-31T04:47:53.848Z,3.2
2023-01-31T04:50:53.857Z,3.2
2023-01-31T04:53:53.862Z,3.2
2023-01-31T04:56:53.854Z,3.2
2023-01-31T04:59:53.873Z,3.2
2023-01-31T05:02:53.876Z,3.2
2023-01-31T05:05:53.849Z,3.2
2023-01-31T05:08:53.854Z,3.1
2023-01-31T05:14:53.856Z,3.1
2023-01-31T05:17:53.858Z,3.1
2023-01-31T05:20:53.879Z,3.1
2023-01-31T05:23:53.865Z,3.1
2023-01-31T05:26:53.862Z,3
2023-01-31T05:29:53.862Z,3
2023-01-31T05:32:53.860Z,3
2023-01-31T05:35:53.845Z,3
2023-01-31T05:38:53.867Z,2.9
2023-01-31T05:41:53.859Z,2.9
2023-01-31T05:44:55.177Z,2.9
2023-01-31T05:47:54.335Z,2.9
2023-01-31T05:50:54.363Z,2.9
2023-01-31T05:53:54.345Z,2.9
2023-01-31T05:56:54.368Z,2.9
2023-01-31T05:59:54.359Z,2.8
2023-01-31T06:02:54.375Z,2.8
2023-01-31T06:05:54.344Z,2.8
2023-01-31T06:08:54.343Z,2.8
2023-01-31T06:11:54.344Z,2.8
2023-01-31T06:14:54.367Z,2.7
2023-01-31T06:17:54.348Z,2.7
2023-01-31T06:20:54.341Z,2.7
2023-01-31T06:23:54.352Z,2.7
2023-01-31T06:26:54.349Z,2.6
2023-01-31T06:29:54.480Z,2.6
2023-01-31T06:32:54.367Z,2.6
2023-01-31T06:35:54.350Z,2.6
2023-01-31T06:38:54.364Z,2.6
2023-01-31T06:41:54.356Z,2.6
2023-01-31T06:44:54.381Z,2.6
2023-01-31T06:47:54.765Z,2.6
2023-01-31T06:50:54.530Z,2.6
2023-01-31T06:53:54.363Z,2.6
2023-01-31T06:56:54.864Z,2.7
2023-01-31T06:59:54.351Z,2.7
2023-01-31T07:02:54.444Z,2.7
2023-01-31T07:05:54.348Z,2.7
2023-01-31T07:08:54.352Z,2.7
2023-01-31T07:11:54.350Z,2.7
2023-01-31T07:14:54.350Z,2.7
2023-01-31T07:17:54.349Z,2.7
2023-01-31T07:20:54.365Z,2.7
2023-01-31T07:23:54.347Z,2.7
2023-01-31T07:26:54.481Z,2.7
2023-01-31T07:29:54.352Z,2.7
2023-01-31T07:32:54.356Z,2.7
2023-01-31T07:35:54.358Z,2.7
2023-01-31T07:38:54.361Z,2.7
2023-01-31T07:44:54.371Z,2.8
2023-01-31T07:47:54.361Z,2.8
2023-01-31T07:50:54.353Z,2.8
2023-01-31T07:53:54.358Z,2.9
2023-01-31T07:56:54.363Z,2.9
2023-01-31T07:59:54.357Z,2.9
2023-01-31T08:02:54.352Z,2.9
2023-01-31T08:08:54.360Z,3
2023-01-31T08:11:54.381Z,3.1
2023-01-31T08:14:54.367Z,3.1
2023-01-31T08:17:54.363Z,3.1
2023-01-31T08:20:54.366Z,3.1
2023-01-31T08:23:54.385Z,3.1
2023-01-31T08:26:54.432Z,3.2
2023-01-31T08:29:54.362Z,3.2
2023-01-31T08:32:54.359Z,3.2
2023-01-31T08:35:54.363Z,3.2
2023-01-31T08:38:54.479Z,3.2
2023-01-31T08:41:54.369Z,3.2
2023-01-31T08:44:54.364Z,3.2
2023-01-31T08:47:54.371Z,3.2
2023-01-31T08:50:54.387Z,3.2
2023-01-31T08:53:54.382Z,3.2
2023-01-31T08:56:54.379Z,3.2
2023-01-31T08:59:54.385Z,3.2
2023-01-31T09:02:54.442Z,3.2
2023-01-31T09:05:54.375Z,3.2
2023-01-31T09:08:54.384Z,3.2
2023-01-31T09:11:54.372Z,3.2
2023-01-31T09:14:54.365Z,3.2
2023-01-31T09:17:54.356Z,3.2
2023-01-31T09:20:54.357Z,3.2
2023-01-31T09:23:54.374Z,3.2
2023-01-31T09:26:54.407Z,3.2
2023-01-31T09:29:54.364Z,3.2
2023-01-31T09:32:54.360Z,3.3
2023-01-31T09:35:54.374Z,3.3
2023-01-31T09:38:54.364Z,3.3
2023-01-31T09:41:54.404Z,3.3
2023-01-31T09:44:54.369Z,3.3
2023-01-31T09:47:54.367Z,3.3
2023-01-31T09:50:54.369Z,3.3
2023-01-31T09:53:54.370Z,3.3
2023-01-31T09:56:54.367Z,3.3
2023-01-31T09:59:54.365Z,3.3
2023-01-31T10:02:54.374Z,3.4
2023-01-31T10:05:54.394Z,3.4
2023-01-31T10:08:54.366Z,3.4
2023-01-31T10:11:54.375Z,3.4
2023-01-31T10:14:54.379Z,3.4
2023-01-31T10:17:54.433Z,3.5
2023-01-31T10:20:54.373Z,3.5
2023-01-31T10:23:54.372Z,3.5
2023-01-31T10:26:54.421Z,3.5
2023-01-31T10:32:54.376Z,3.5
2023-01-31T10:35:54.377Z,3.5
2023-01-31T10:38:54.406Z,3.5
2023-01-31T10:41:54.394Z,3.5
2023-01-31T10:44:54.382Z,3.6
2023-01-31T10:47:54.379Z,3.6
2023-01-31T10:50:54.370Z,3.6
2023-01-31T10:53:54.396Z,3.6
2023-01-31T10:56:54.378Z,3.7
2023-01-31T10:59:54.399Z,3.7
2023-01-31T11:02:54.390Z,3.7
2023-01-31T11:05:54.377Z,3.8
2023-01-31T11:08:54.384Z,3.8
2023-01-31T11:11:54.382Z,3.8
2023-01-31T11:14:54.857Z,3.8
2023-01-31T11:17:54.381Z,3.9
2023-01-31T11:20:54.387Z,3.9
2023-01-31T11:23:54.385Z,3.9
2023-01-31T11:26:54.410Z,3.9
2023-01-31T11:29:54.397Z,3.9
2023-01-31T11:32:54.393Z,4
2023-01-31T11:35:54.424Z,4
2023-01-31T11:38:54.401Z,4
2023-01-31T11:41:54.403Z,4
2023-01-31T11:44:54.417Z,4
2023-01-31T11:47:54.401Z,4
2023-01-31T11:50:54.407Z,4.1
2023-01-31T11:53:54.414Z,4.1
2023-01-31T11:56:55.764Z,4.1
2023-01-31T11:59:54.405Z,4.1
2023-01-31T12:02:54.435Z,4.1
2023-01-31T12:05:54.419Z,4.1
2023-01-31T12:08:54.425Z,4.1
2023-01-31T12:11:54.415Z,4.2
2023-01-31T12:14:54.429Z,4.2
2023-01-31T12:17:54.410Z,4.2
2023-01-31T12:20:54.468Z,4.2
2023-01-31T12:23:54.431Z,4.2
2023-01-31T12:26:54.524Z,4.2
2023-01-31T12:29:54.419Z,4.3
2023-01-31T12:32:54.416Z,4.3
2023-01-31T12:35:54.419Z,4.3
2023-01-31T12:38:54.424Z,4.3
2023-01-31T12:41:54.417Z,4.3
2023-01-31T12:44:54.417Z,4.3
2023-01-31T12:47:54.424Z,4.3
2023-01-31T12:50:54.442Z,4.3
2023-01-31T12:53:54.433Z,4.4
2023-01-31T12:56:54.421Z,4.4
2023-01-31T12:59:54.431Z,4.4
2023-01-31T13:02:54.504Z,4.4
2023-01-31T13:05:54.445Z,4.4
2023-01-31T13:09:07.106Z,4.4
2023-01-31T13:11:54.434Z,4.4
2023-01-31T13:14:54.424Z,4.4
2023-01-31T13:17:54.431Z,4.4
2023-01-31T13:20:54.429Z,4.4
2023-01-31T13:23:54.424Z,4.4
2023-01-31T13:26:54.427Z,4.4
2023-01-31T13:29:54.429Z,4.4
2023-01-31T13:32:54.430Z,4.5
2023-01-31T13:35:54.431Z,4.5
2023-01-31T13:38:54.449Z,4.5
2023-01-31T13:41:54.422Z,4.5
2023-01-31T13:44:54.437Z,4.5
2023-01-31T13:47:54.428Z,4.5
2023-01-31T13:50:54.445Z,4.6
2023-01-31T13:53:54.428Z,4.6
2023-01-31T13:56:54.476Z,4.6
2023-01-31T13:59:54.444Z,4.6
2023-01-31T14:02:54.526Z,4.6
2023-01-31T14:05:54.465Z,4.6
2023-01-31T14:11:54.436Z,4.6
2023-01-31T14:14:54.449Z,4.6
2023-01-31T14:17:54.440Z,4.6
2023-01-31T14:20:54.451Z,4.6
2023-01-31T14:23:54.466Z,4.6
2023-01-31T14:26:54.451Z,4.6
2023-01-31T14:29:54.450Z,4.6
2023-01-31T14:32:54.470Z,4.6
2023-01-31T14:35:54.454Z,4.6
2023-01-31T14:38:54.470Z,4.6
2023-01-31T14:41:54.453Z,4.6
2023-01-31T14:44:54.468Z,4.6
2023-01-31T14:47:54.478Z,4.6
2023-01-31T14:50:54.470Z,4.5
2023-01-31T14:53:54.459Z,4.5
2023-01-31T14:56:54.452Z,4.5
2023-01-31T14:59:54.463Z,4.5
2023-01-31T15:02:54.616Z,4.5
2023-01-31T15:05:54.485Z,4.5
2023-01-31T15:08:54.462Z,4.5
2023-01-31T15:11:54.451Z,4.5
2023-01-31T15:14:54.451Z,4.5
2023-01-31T15:17:54.460Z,4.5
2023-01-31T15:20:54.468Z,4.5
2023-01-31T15:23:54.465Z,4.5
2023-01-31T15:26:54.455Z,4.5
2023-01-31T15:29:54.452Z,4.5
2023-01-31T15:32:54.461Z,4.6
2023-01-31T15:35:54.468Z,4.6
2023-01-31T15:41:54.465Z,4.6
2023-01-31T15:47:54.474Z,4.6
2023-01-31T15:50:54.505Z,4.6
2023-01-31T15:53:54.467Z,4.6
2023-01-31T15:56:54.465Z,4.6
2023-01-31T15:59:54.468Z,4.6
2023-01-31T16:02:54.461Z,4.6
2023-01-31T16:05:54.471Z,4.6
2023-01-31T16:09:00.545Z,4.6
2023-01-31T16:11:54.468Z,4.6
2023-01-31T16:14:54.467Z,4.6
2023-01-31T16:17:54.487Z,4.6
2023-01-31T16:20:54.482Z,4.6
2023-01-31T16:23:54.487Z,4.6
2023-01-31T16:26:54.515Z,4.6
2023-01-31T16:29:56.390Z,4.6
2023-01-31T16:32:54.481Z,4.6
2023-01-31T16:36:07.048Z,4.6
2023-01-31T16:38:54.486Z,4.6
2023-01-31T16:41:55.579Z,4.7
2023-01-31T16:44:54.501Z,4.7
2023-01-31T16:47:54.477Z,4.7
2023-01-31T16:50:54.491Z,4.7
2023-01-31T16:53:54.506Z,4.7
2023-01-31T16:56:54.492Z,4.7
2023-01-31T16:59:54.498Z,4.7
2023-01-31T17:02:54.537Z,4.7
2023-01-31T17:05:54.499Z,4.7
2023-01-31T17:08:54.480Z,4.7
2023-01-31T17:11:54.511Z,4.7
2023-01-31T17:14:54.530Z,4.7
2023-01-31T17:17:54.490Z,4.7
2023-01-31T17:20:54.491Z,4.7
2023-01-31T17:23:54.496Z,4.7
2023-01-31T17:26:54.549Z,4.7
2023-01-31T17:29:54.491Z,4.7
2023-01-31T17:32:54.489Z,4.7
2023-01-31T17:35:54.492Z,4.7
2023-01-31T17:38:54.492Z,4.7
2023-01-31T17:41:54.500Z,4.7
2023-01-31T17:44:54.485Z,4.7
2023-01-31T17:47:54.504Z,4.7
2023-01-31T17:50:54.517Z,4.7
2023-01-31T17:53:54.496Z,4.7
2023-01-31T17:56:54.495Z,4.7
2023-01-31T17:59:54.489Z,4.7
2023-01-31T18:02:54.529Z,4.8
2023-01-31T18:05:54.504Z,4.8
2023-01-31T18:08:54.490Z,4.8
2023-01-31T18:11:54.491Z,4.8
2023-01-31T18:14:54.498Z,4.8
2023-01-31T18:17:54.491Z,4.8
2023-01-31T18:20:54.487Z,4.8
2023-01-31T18:23:54.502Z,4.8
2023-01-31T18:26:54.556Z,4.8
2023-01-31T18:29:54.527Z,4.8
2023-01-31T18:32:54.489Z,4.9
2023-01-31T18:35:54.491Z,4.9
2023-01-31T18:38:54.492Z,4.9
2023-01-31T18:41:54.491Z,4.9
2023-01-31T18:44:54.497Z,4.9
2023-01-31T18:47:54.518Z,4.9
2023-01-31T18:50:54.503Z,4.9
2023-01-31T18:53:54.503Z,4.9
2023-01-31T18:56:54.512Z,4.9
2023-01-31T18:59:54.502Z,4.9
2023-01-31T19:02:54.503Z,4.9
2023-01-31T19:05:54.499Z,4.9
2023-01-31T19:08:54.516Z,4.9
2023-01-31T19:11:54.531Z,4.9
2023-01-31T19:14:54.500Z,4.9
2023-01-31T19:17:54.532Z,4.9
2023-01-31T19:20:54.516Z,4.9
2023-01-31T19:23:54.505Z,4.9
2023-01-31T19:26:54.574Z,4.9
2023-01-31T19:29:54.515Z,4.9
2023-01-31T19:35:54.515Z,4.9
2023-01-31T19:38:54.505Z,4.9
2023-01-31T19:41:54.514Z,4.9
2023-01-31T19:44:54.503Z,4.9
2023-01-31T19:47:55.770Z,4.9
2023-01-31T19:50:54.508Z,4.9
2023-01-31T19:53:54.502Z,5
2023-01-31T19:56:54.513Z,5
2023-01-31T19:59:54.508Z,5
2023-01-31T20:02:54.518Z,5
2023-01-31T20:05:54.503Z,5
2023-01-31T20:08:54.509Z,5
2023-01-31T20:11:54.505Z,5
2023-01-31T20:14:54.508Z,5
2023-01-31T20:20:54.509Z,5
2023-01-31T20:23:54.556Z,5
2023-01-31T20:26:54.635Z,5
2023-01-31T20:29:54.511Z,5
2023-01-31T20:32:54.504Z,5
2023-01-31T20:35:54.520Z,5
2023-01-31T20:38:54.571Z,5
2023-01-31T20:41:54.539Z,5
2023-01-31T20:44:54.514Z,5
2023-01-31T20:47:54.509Z,5
2023-01-31T20:50:54.529Z,5
2023-01-31T20:53:54.513Z,5
2023-01-31T20:56:54.526Z,5
2023-01-31T20:59:54.525Z,5
2023-01-31T21:02:54.584Z,5
2023-01-31T21:05:54.544Z,5
2023-01-31T21:11:54.522Z,5
2023-01-31T21:14:54.535Z,5
2023-01-31T21:17:54.514Z,5
2023-01-31T21:20:54.528Z,5
2023-01-31T21:23:54.517Z,5
2023-01-31T21:26:54.582Z,5
2023-01-31T21:29:54.537Z,5
2023-01-31T21:32:54.521Z,5
2023-01-31T21:35:54.516Z,5
2023-01-31T21:38:54.543Z,5
2023-01-31T21:41:54.525Z,5
2023-01-31T21:44:54.529Z,5
2023-01-31T21:47:54.528Z,5
2023-01-31T21:50:54.542Z,5
2023-01-31T21:53:54.528Z,5
2023-01-31T21:56:54.521Z,4.9
2023-01-31T21:59:54.539Z,4.9
2023-01-31T22:02:54.645Z,4.9
2023-01-31T22:05:54.525Z,4.9
2023-01-31T22:08:54.546Z,5
2023-01-31T22:11:54.612Z,5
2023-01-31T22:14:54.534Z,5
2023-01-31T22:17:54.539Z,5
2023-01-31T22:20:54.527Z,5
2023-01-31T22:23:54.536Z,5
2023-01-31T22:26:54.586Z,4.9
2023-01-31T22:29:58.604Z,4.9
2023-01-31T22:32:54.528Z,4.9
2023-01-31T22:35:54.548Z,4.9
2023-01-31T22:38:54.582Z,4.9
2023-01-31T22:41:54.540Z,4.9
2023-01-31T22:44:54.532Z,4.9
2023-01-31T22:47:54.533Z,4.9
2023-01-31T22:50:54.528Z,4.9
2023-01-31T22:53:54.538Z,4.9
2023-01-31T22:56:54.537Z,4.9
2023-01-31T22:59:54.526Z,4.9
2023-01-31T23:02:54.531Z,4.9
2023-01-31T23:05:54.559Z,4.9
2023-01-31T23:08:54.557Z,4.8
2023-01-31T23:11:54.587Z,4.8
2023-01-31T23:14:54.531Z,4.8
2023-01-31T23:17:54.535Z,4.8
2023-01-31T23:20:54.534Z,4.8
2023-01-31T23:23:54.533Z,4.8
2023-01-31T23:26:54.575Z,4.8
2023-01-31T23:29:54.535Z,4.7
2023-01-31T23:32:54.549Z,4.7
2023-01-31T23:35:54.535Z,4.7
2023-01-31T23:38:54.549Z,4.7
2023-01-31T23:41:54.548Z,4.7
2023-01-31T23:44:54.557Z,4.7
2023-01-31T23:47:54.536Z,4.7
2023-01-31T23:50:54.551Z,4.7
2023-01-31T23:53:54.554Z,4.7
2023-01-31T23:56:54.549Z,4.8
2023-01-31T23:59:54.550Z,4.8
